createdAt,value
2023-04-17T00:03:12.162Z,8.39
2023-04-17T00:08:14.590Z,8.41
2023-04-17T00:13:16.170Z,8.41
2023-04-17T00:18:17.984Z,8.24
2023-04-17T00:23:19.558Z,8.29
2023-04-17T00:28:21.113Z,8.28
2023-04-17T00:33:22.865Z,8.28
2023-04-17T00:38:24.496Z,8.23
2023-04-17T00:43:26.187Z,8.06
2023-04-17T00:48:28.436Z,8.05
2023-04-17T00:53:31.721Z,7.99
2023-04-17T00:58:35.500Z,8.12
2023-04-17T01:03:37.829Z,8.20
2023-04-17T01:08:41.504Z,8.15
2023-04-17T01:13:47.153Z,8.11
2023-04-17T01:18:49.065Z,8.23
2023-04-17T01:23:54.549Z,8.28
2023-04-17T01:29:00.820Z,8.33
2023-04-17T01:34:05.060Z,8.40
2023-04-17T01:39:07.420Z,8.43
2023-04-17T01:44:09.165Z,8.31
2023-04-17T01:49:11.843Z,8.27
2023-04-17T01:54:15.412Z,8.28
2023-04-17T01:59:17.577Z,8.28
2023-04-17T02:04:19.338Z,8.18
2023-04-17T02:09:21.010Z,8.04
2023-04-17T02:14:23.120Z,8.07
2023-04-17T02:19:24.946Z,7.98
2023-04-17T02:24:26.577Z,7.91
2023-04-17T02:29:28.562Z,7.81
2023-04-17T02:34:32.045Z,7.74
2023-04-17T02:39:35.128Z,7.71
2023-04-17T02:44:37.141Z,7.62
2023-04-17T02:49:38.843Z,7.53
2023-04-17T02:54:40.541Z,7.50
2023-04-17T02:59:43.415Z,7.47
2023-04-17T03:04:45.188Z,7.48
2023-04-17T03:09:47.134Z,7.34
2023-04-17T03:14:49.163Z,7.24
2023-04-17T03:19:50.802Z,7.27
2023-04-17T03:24:52.425Z,7.22
2023-04-17T03:29:55.227Z,7.28
2023-04-17T03:34:58.260Z,7.31
2023-04-17T03:39:59.978Z,7.39
2023-04-17T03:45:03.373Z,7.43
2023-04-17T03:50:06.906Z,7.48
2023-04-17T03:55:13.918Z,7.66
2023-04-17T04:00:17.918Z,7.69
2023-04-17T04:05:27.713Z,7.61
2023-04-17T04:10:32.449Z,7.54
2023-04-17T04:15:34.663Z,7.56
2023-04-17T04:20:41.348Z,7.64
2023-04-17T04:25:49.641Z,7.81
2023-04-17T04:30:59.716Z,7.87
2023-04-17T04:36:06.099Z,7.94
2023-04-17T04:41:10.557Z,7.95
2023-04-17T04:46:14.128Z,7.95
2023-04-17T04:51:20.469Z,8.07
2023-04-17T04:56:24.490Z,8.09
2023-04-17T05:01:27.872Z,8.15
2023-04-17T05:06:31.225Z,8.28
2023-04-17T05:11:37.082Z,8.35
2023-04-17T05:16:38.818Z,8.41
2023-04-17T05:21:41.138Z,8.54
2023-04-17T05:26:43.278Z,8.67
2023-04-17T05:31:45.478Z,8.81
2023-04-17T05:37:00.754Z,8.97
2023-04-17T05:42:02.317Z,9.07
2023-04-17T05:47:04.120Z,9.16
2023-04-17T05:52:06.284Z,9.12
2023-04-17T05:57:12.749Z,9.23
2023-04-17T06:02:15.145Z,9.30
2023-04-17T06:07:17.015Z,9.22
2023-04-17T06:12:18.786Z,9.19
2023-04-17T06:17:21.219Z,9.21
2023-04-17T06:22:23.098Z,9.29
2023-04-17T06:27:24.745Z,9.34
2023-04-17T06:32:26.620Z,9.38
2023-04-17T06:37:28.356Z,9.48
2023-04-17T06:42:30.745Z,9.47
2023-04-17T06:47:36.845Z,9.53
2023-04-17T06:52:38.558Z,9.65
2023-04-17T06:57:40.219Z,9.79
2023-04-17T07:02:41.957Z,9.87
2023-04-17T07:07:43.607Z,9.82
2023-04-17T07:12:45.850Z,9.91
2023-04-17T07:17:47.527Z,10.03
2023-04-17T07:22:49.860Z,10.15
2023-04-17T07:27:51.412Z,10.21
2023-04-17T07:32:53.238Z,10.45
2023-04-17T07:37:58.048Z,10.77
2023-04-17T07:42:59.577Z,11.06
2023-04-17T07:48:01.305Z,11.14
2023-04-17T07:53:02.951Z,11.13
2023-04-17T07:58:06.440Z,11.07
2023-04-17T08:03:08.252Z,11.13
2023-04-17T08:08:09.971Z,11.16
2023-04-17T08:13:11.685Z,11.23
2023-04-17T08:18:13.853Z,11.26
2023-04-17T08:23:15.499Z,11.41
2023-04-17T08:28:17.399Z,11.72
2023-04-17T08:33:19.614Z,12.17
2023-04-17T08:38:25.466Z,12.35
2023-04-17T08:43:31.053Z,12.31
2023-04-17T08:48:32.722Z,12.37
2023-04-17T08:53:34.544Z,12.34
2023-04-17T08:58:36.470Z,12.37
2023-04-17T09:03:42.294Z,12.44
2023-04-17T09:09:00.667Z,12.35
2023-04-17T09:14:02.246Z,12.38
2023-04-17T09:19:07.772Z,12.47
2023-04-17T09:24:10.037Z,12.53
2023-04-17T09:29:13.803Z,12.51
2023-04-17T09:34:16.669Z,12.63
2023-04-17T09:39:20.706Z,12.76
2023-04-17T09:44:26.950Z,13.23
2023-04-17T09:49:34.472Z,13.97
2023-04-17T09:54:39.301Z,14.36
2023-04-17T09:59:45.190Z,13.77
2023-04-17T10:04:47.581Z,13.75
2023-04-17T10:09:49.195Z,13.61
2023-04-17T10:14:52.426Z,13.49
2023-04-17T10:19:54.348Z,13.32
2023-04-17T10:25:11.332Z,13.35
2023-04-17T10:30:13.809Z,13.43
2023-04-17T10:35:15.640Z,13.39
2023-04-17T10:40:21.519Z,13.34
2023-04-17T10:45:23.126Z,13.31
2023-04-17T10:50:28.420Z,13.18
2023-04-17T10:55:30.381Z,13.19
2023-04-17T11:00:39.525Z,13.27
2023-04-17T11:05:44.603Z,13.27
2023-04-17T11:10:46.255Z,13.29
2023-04-17T11:15:50.227Z,13.47
2023-04-17T11:20:52.265Z,13.59
2023-04-17T11:25:53.863Z,13.61
2023-04-17T11:30:55.608Z,13.73
2023-04-17T11:35:57.256Z,13.80
2023-04-17T11:41:00.042Z,13.61
2023-04-17T11:46:01.952Z,13.43
2023-04-17T11:51:04.362Z,13.34
2023-04-17T11:56:13.059Z,13.27
2023-04-17T12:01:15.132Z,13.22
2023-04-17T12:06:16.892Z,13.13
2023-04-17T12:11:34.364Z,13.07
2023-04-17T12:16:36.206Z,12.64
2023-04-17T12:21:37.841Z,12.20
2023-04-17T12:26:51.713Z,11.97
2023-04-17T12:31:53.349Z,11.93
2023-04-17T12:36:55.055Z,11.99
2023-04-17T12:41:56.572Z,12.00
2023-04-17T12:46:58.167Z,12.02
2023-04-17T12:52:03.613Z,12.06
2023-04-17T12:57:05.832Z,12.02
2023-04-17T13:02:08.104Z,11.90
2023-04-17T13:07:10.562Z,11.82
2023-04-17T13:12:13.091Z,11.73
2023-04-17T13:17:16.888Z,11.67
2023-04-17T13:22:20.580Z,11.62
2023-04-17T13:27:22.145Z,11.69
2023-04-17T13:32:23.843Z,11.73
2023-04-17T13:37:25.719Z,11.83
2023-04-17T13:42:27.584Z,11.88
2023-04-17T13:47:29.423Z,11.90
2023-04-17T13:52:30.990Z,11.90
2023-04-17T13:57:32.715Z,11.86
2023-04-17T14:02:34.628Z,11.80
2023-04-17T14:07:37.117Z,11.87
2023-04-17T14:12:39.221Z,11.91
2023-04-17T14:17:43.155Z,11.79
2023-04-17T14:22:45.729Z,11.93
2023-04-17T14:27:47.447Z,11.94
2023-04-17T14:32:49.469Z,11.87
2023-04-17T14:37:51.246Z,12.10
2023-04-17T14:42:54.834Z,12.08
2023-04-17T14:47:56.993Z,12.43
2023-04-17T14:52:58.682Z,12.52
2023-04-17T14:58:00.258Z,12.45
2023-04-17T15:03:02.348Z,12.41
2023-04-17T15:08:04.190Z,12.19
2023-04-17T15:13:05.907Z,12.23
2023-04-17T15:18:07.815Z,12.23
2023-04-17T15:23:09.542Z,12.27
2023-04-17T15:28:12.346Z,12.26
2023-04-17T15:33:13.974Z,12.33
2023-04-17T15:38:15.628Z,12.27
2023-04-17T15:43:17.298Z,12.19
2023-04-17T15:48:18.884Z,12.25
2023-04-17T15:53:20.578Z,12.29
2023-04-17T15:58:22.209Z,12.35
2023-04-17T16:03:24.480Z,12.38
2023-04-17T16:08:26.911Z,12.46
2023-04-17T16:13:28.555Z,12.55
2023-04-17T16:18:30.493Z,12.80
2023-04-17T16:23:33.184Z,12.89
2023-04-17T16:28:34.966Z,12.78
2023-04-17T16:33:36.557Z,12.75
2023-04-17T16:38:38.741Z,12.80
2023-04-17T16:43:42.531Z,13.01
2023-04-17T16:48:44.374Z,13.25
2023-04-17T16:53:46.891Z,13.30
2023-04-17T16:58:48.508Z,13.19
2023-04-17T17:03:50.450Z,13.07
2023-04-17T17:08:55.032Z,13.04
2023-04-17T17:13:57.811Z,12.86
2023-04-17T17:19:00.231Z,12.94
2023-04-17T17:24:01.909Z,12.79
2023-04-17T17:29:03.922Z,12.67
2023-04-17T17:34:22.663Z,12.56
2023-04-17T17:39:27.662Z,12.39
2023-04-17T17:44:29.258Z,12.29
2023-04-17T17:49:30.840Z,12.15
2023-04-17T17:54:38.584Z,11.99
2023-04-17T17:59:40.433Z,11.90
2023-04-17T18:04:42.208Z,11.81
2023-04-17T18:09:44.312Z,11.82
2023-04-17T18:14:45.989Z,11.82
2023-04-17T18:19:47.648Z,11.83
2023-04-17T18:24:54.543Z,11.78
2023-04-17T18:29:56.271Z,11.63
2023-04-17T18:34:58.320Z,11.54
2023-04-17T18:39:59.953Z,11.52
2023-04-17T18:45:01.930Z,11.56
2023-04-17T18:50:04.771Z,11.45
2023-04-17T18:55:07.095Z,11.27
2023-04-17T19:00:09.055Z,11.21
2023-04-17T19:05:10.686Z,11.24
2023-04-17T19:10:12.417Z,11.30
2023-04-17T19:15:17.369Z,11.30
2023-04-17T19:20:19.243Z,11.20
2023-04-17T19:25:20.823Z,11.15
2023-04-17T19:30:22.472Z,11.14
2023-04-17T19:35:24.666Z,11.11
2023-04-17T19:40:26.346Z,11.02
2023-04-17T19:45:28.645Z,10.96
2023-04-17T19:50:30.732Z,10.99
2023-04-17T19:55:32.312Z,10.99
2023-04-17T20:00:33.989Z,10.99
2023-04-17T20:05:36.160Z,10.95
2023-04-17T20:10:37.762Z,10.94
2023-04-17T20:15:39.822Z,10.84
2023-04-17T20:20:42.031Z,10.79
2023-04-17T20:25:43.710Z,10.69
2023-04-17T20:30:45.805Z,10.64
2023-04-17T20:35:47.511Z,10.61
2023-04-17T20:40:49.284Z,10.56
2023-04-17T20:45:51.360Z,10.54
2023-04-17T20:50:53.029Z,10.51
2023-04-17T20:55:56.568Z,10.52
2023-04-17T21:01:01.662Z,10.44
2023-04-17T21:06:03.710Z,10.37
2023-04-17T21:11:05.405Z,10.29
2023-04-17T21:16:09.708Z,10.27
2023-04-17T21:21:11.481Z,10.19
2023-04-17T21:26:13.212Z,10.17
2023-04-17T21:31:15.067Z,10.17
2023-04-17T21:36:16.856Z,10.22
2023-04-17T21:41:18.434Z,10.18
2023-04-17T21:46:20.156Z,10.20
2023-04-17T21:51:21.881Z,10.23
2023-04-17T21:56:24.049Z,10.23
2023-04-17T22:01:25.745Z,10.15
2023-04-17T22:06:27.523Z,10.18
2023-04-17T22:11:29.132Z,10.22
2023-04-17T22:16:30.817Z,10.31
2023-04-17T22:21:32.551Z,10.34
2023-04-17T22:26:34.143Z,10.33
2023-04-17T22:31:36.409Z,10.21
2023-04-17T22:36:38.182Z,10.15
2023-04-17T22:41:39.807Z,10.13
2023-04-17T22:46:41.526Z,10.11
2023-04-17T22:51:43.276Z,10.15
2023-04-17T22:56:44.901Z,10.15
2023-04-17T23:01:46.693Z,10.07
2023-04-17T23:06:48.329Z,10.03
2023-04-17T23:11:50.011Z,9.98
2023-04-17T23:16:52.819Z,9.94
2023-04-17T23:21:54.736Z,9.95
2023-04-17T23:26:56.316Z,10.04
2023-04-17T23:31:58.088Z,10.05
2023-04-17T23:36:59.638Z,10.03
2023-04-17T23:42:06.898Z,10.00
2023-04-17T23:47:08.663Z,9.95
2023-04-17T23:52:10.245Z,9.85
2023-04-17T23:57:12.025Z,9.75
